Time;durP1;ratioP1;P1;durP2;ratioP2;P2;SDS_P1;SDS_P2;PMS_P1;PMS_P2;Temp;Humidity;BMP_temperature;BMP_pressure;BME280_temperature;BME280_humidity;BME280_pressure;Samples;Min_cycle;Max_cycle;Signal;HPM_P1;HPM_P2
2021/03/25 00:01:38;;;;;;;44.47;25.83;;;76.80;2124.80;;;;;;4838590;29;20063;-75
2021/03/25 00:04:05;;;;;;;40.40;22.95;;;76.80;2150.40;;;;;;4842939;29;20104;-75
2021/03/25 00:06:34;;;;;;;38.58;25.10;;;76.80;2150.40;;;;;;4842414;29;20458;-74
2021/03/25 00:08:59;;;;;;;44.85;26.88;;;76.80;2150.40;;;;;;4842157;29;20025;-74
2021/03/25 00:11:25;;;;;;;46.45;25.83;;;76.80;2150.40;;;;;;4825966;29;20552;-75
2021/03/25 00:13:51;;;;;;;44.17;25.45;;;52.10;2150.40;;;;;;4842138;29;20037;-74
2021/03/25 00:16:17;;;;;;;41.00;26.65;;;52.00;2150.40;;;;;;4842632;29;20036;-75
2021/03/25 00:18:43;;;;;;;40.13;25.85;;;51.90;2176.00;;;;;;4848028;29;20036;-75
2021/03/25 00:21:10;;;;;;;44.30;25.10;;;51.90;2201.60;;;;;;4840521;29;20042;-75
2021/03/25 00:23:37;;;;;;;41.03;24.15;;;51.90;2201.60;;;;;;4842237;29;20112;-75
2021/03/25 00:26:03;;;;;;;41.90;25.33;;;51.90;2201.60;;;;;;4844266;29;20026;-75
2021/03/25 00:28:29;;;;;;;46.38;27.05;;;51.90;2201.60;;;;;;4850579;29;20433;-75
2021/03/25 00:30:54;;;;;;;46.50;27.70;;;51.80;2227.20;;;;;;4842298;29;20057;-75
2021/03/25 00:33:21;;;;;;;44.13;26.27;;;51.80;2227.20;;;;;;4848722;29;20076;-75
2021/03/25 00:35:49;;;;;;;47.83;27.38;;;51.90;2227.20;;;;;;4823888;29;20026;-75
2021/03/25 00:38:16;;;;;;;42.90;26.55;;;51.90;2227.20;;;;;;4842444;29;20034;-75
2021/03/25 00:40:44;;;;;;;47.33;30.92;;;51.90;2227.20;;;;;;4825612;29;20034;-75
2021/03/25 00:43:10;;;;;;;48.10;28.30;;;51.90;2227.20;;;;;;4820278;29;20034;-75
2021/03/25 00:45:42;;;;;;;50.53;30.88;;;51.90;2227.20;;;;;;4840888;29;20026;-74
2021/03/25 00:48:10;;;;;;;52.13;32.05;;;52.00;2227.20;;;;;;4825924;29;20048;-74
2021/03/25 00:51:02;;;;;;;57.08;34.20;;;51.90;2227.20;;;;;;4838553;29;20389;-74
2021/03/25 00:53:31;;;;;;;62.97;37.72;;;51.90;2227.20;;;;;;4834531;29;20046;-74
2021/03/25 00:55:58;;;;;;;62.35;36.65;;;52.00;2227.20;;;;;;4841875;29;20081;-75
2021/03/25 00:58:24;;;;;;;62.58;37.17;;;51.90;2227.20;;;;;;4835439;29;20033;-75
2021/03/25 01:00:51;;;;;;;66.38;35.50;;;52.00;2227.20;;;;;;4839870;29;20113;-74
2021/03/25 01:03:20;;;;;;;71.05;39.33;;;52.00;2227.20;;;;;;4829971;29;20037;-75
2021/03/25 01:05:46;;;;;;;67.53;41.17;;;52.00;2227.20;;;;;;4846586;29;20058;-75
2021/03/25 01:08:13;;;;;;;66.97;39.63;;;52.00;2227.20;;;;;;4832429;29;20389;-75
2021/03/25 01:10:51;;;;;;;78.60;42.97;;;52.00;2227.20;;;;;;4847581;29;20514;-75
2021/03/25 01:13:36;;;;;;;78.30;44.25;;;52.00;2227.20;;;;;;4852426;29;20137;-74
2021/03/25 01:16:04;;;;;;;71.32;43.70;;;52.00;2227.20;;;;;;4824570;29;20037;-75
2021/03/25 01:18:30;;;;;;;80.00;48.45;;;52.10;2227.20;;;;;;4848232;29;20049;-74
2021/03/25 01:20:56;;;;;;;98.00;55.85;;;52.10;2227.20;;;;;;4833335;29;20440;-75
2021/03/25 01:23:23;;;;;;;102.28;58.83;;;52.00;2227.20;;;;;;4844363;29;20030;-75
2021/03/25 01:25:49;;;;;;;94.82;52.97;;;52.00;2227.20;;;;;;4841510;29;20109;-75
2021/03/25 01:28:16;;;;;;;92.90;53.22;;;51.90;2227.20;;;;;;4837521;29;20033;-74
2021/03/25 01:30:43;;;;;;;97.97;52.10;;;51.90;2227.20;;;;;;4841521;29;20060;-75
2021/03/25 01:33:11;;;;;;;105.40;56.35;;;52.00;2227.20;;;;;;4844177;29;20070;-74
2021/03/25 01:35:38;;;;;;;96.10;55.20;;;52.00;2227.20;;;;;;4850475;29;20061;-74
2021/03/25 01:38:06;;;;;;;97.78;51.92;;;52.00;2227.20;;;;;;4825505;29;20037;-74
2021/03/25 01:40:37;;;;;;;97.32;54.97;;;51.90;2227.20;;;;;;4840995;29;20105;-74
2021/03/25 01:43:17;;;;;;;102.18;56.67;;;52.00;2227.20;;;;;;4841985;29;20026;-74
2021/03/25 01:46:00;;;;;;;95.40;53.63;;;52.00;2227.20;;;;;;4840697;29;20037;-74
2021/03/25 01:48:38;;;;;;;95.25;55.88;;;52.00;2227.20;;;;;;4840810;29;20030;-74
2021/03/25 01:51:30;;;;;;;100.05;62.30;;;51.90;2227.20;;;;;;4824821;29;20106;-74
2021/03/25 01:54:12;;;;;;;103.45;59.97;;;51.80;2227.20;;;;;;4824328;29;20041;-74
2021/03/25 01:56:46;;;;;;;98.82;54.88;;;51.80;2227.20;;;;;;4840855;29;20060;-74
2021/03/25 01:59:30;;;;;;;104.03;56.33;;;51.80;2227.20;;;;;;4828989;29;20104;-74
2021/03/25 02:02:08;;;;;;;98.07;54.67;;;51.70;2227.20;;;;;;4841148;29;20030;-74
2021/03/25 02:04:49;;;;;;;90.90;52.60;;;51.70;2227.20;;;;;;4840565;29;20116;-74
2021/03/25 02:07:30;;;;;;;77.18;48.50;;;51.70;2227.20;;;;;;4843409;29;20088;-74
2021/03/25 02:10:00;;;;;;;97.93;53.95;;;51.70;2227.20;;;;;;4824796;29;20101;-74
2021/03/25 02:12:42;;;;;;;89.53;50.88;;;51.60;2227.20;;;;;;4828089;29;20445;-75
2021/03/25 02:15:18;;;;;;;86.22;47.70;;;51.60;2227.20;;;;;;4831117;29;20037;-73
2021/03/25 02:17:47;;;;;;;;;;;51.60;2227.20;;;;;;4841278;29;20104;-74
2021/03/25 02:20:34;;;;;;;83.30;44.08;;;51.70;2227.20;;;;;;4839149;29;19908;-73
2021/03/25 02:23:22;;;;;;;79.47;45.13;;;51.70;2227.20;;;;;;4851423;29;20394;-73
2021/03/25 02:25:54;;;;;;;78.55;46.00;;;51.60;2227.20;;;;;;4817919;29;20026;-73
2021/03/25 02:29:00;;;;;;;78.38;42.92;;;51.60;2227.20;;;;;;4844421;29;20511;-73
2021/03/25 02:31:35;;;;;;;73.13;44.15;;;51.60;2227.20;;;;;;4837953;29;20037;-73
2021/03/25 02:34:08;;;;;;;77.47;43.67;;;51.60;2227.20;;;;;;4837376;29;20037;-73
2021/03/25 02:36:47;;;;;;;82.45;42.63;;;51.60;2227.20;;;;;;4833923;29;20029;-74
2021/03/25 02:39:20;;;;;;;82.82;44.55;;;51.60;2227.20;;;;;;4838704;29;20087;-74
2021/03/25 02:41:52;;;;;;;83.28;45.25;;;51.50;2227.20;;;;;;4829391;29;20381;-74
2021/03/25 02:44:27;;;;;;;84.60;49.17;;;51.50;2227.20;;;;;;4850736;29;20034;-74
2021/03/25 02:46:59;;;;;;;76.05;43.58;;;51.40;2227.20;;;;;;4832802;29;20037;-73
2021/03/25 02:49:30;;;;;;;85.50;46.17;;;51.40;2227.20;;;;;;4815630;29;20057;-74
2021/03/25 02:52:17;;;;;;;76.45;47.08;;;51.40;2227.20;;;;;;4844292;29;20033;-74
2021/03/25 02:54:43;;;;;;;77.72;43.45;;;51.40;2227.20;;;;;;4845228;29;20029;-74
2021/03/25 02:57:34;;;;;;;74.10;42.25;;;51.50;2227.20;;;;;;4827378;29;20030;-74
2021/03/25 03:00:07;;;;;;;64.82;39.05;;;51.50;2227.20;;;;;;4823233;29;20491;-74
2021/03/25 03:02:44;;;;;;;67.75;40.30;;;51.50;2227.20;;;;;;4826951;29;20526;-74
2021/03/25 03:05:21;;;;;;;74.40;40.90;;;51.50;2227.20;;;;;;4846871;29;20407;-74
2021/03/25 03:07:53;;;;;;;69.80;43.35;;;51.50;2227.20;;;;;;4826922;29;20026;-74
2021/03/25 03:10:25;;;;;;;66.53;40.65;;;51.40;2227.20;;;;;;4826460;29;20046;-74
2021/03/25 03:12:53;;;;;;;73.57;43.10;;;51.40;2227.20;;;;;;4826320;29;20051;-74
2021/03/25 03:15:26;;;;;;;71.60;41.10;;;51.40;2227.20;;;;;;4843478;29;20449;-74
2021/03/25 03:18:03;;;;;;;73.82;38.90;;;51.30;2227.20;;;;;;4826500;29;20132;-74
2021/03/25 03:20:39;;;;;;;73.00;45.10;;;51.30;2227.20;;;;;;4826177;29;20056;-74
2021/03/25 03:23:05;;;;;;;71.60;44.08;;;26.50;2201.60;;;;;;4847317;29;20033;-74
2021/03/25 03:25:31;;;;;;;74.85;43.78;;;26.30;2201.60;;;;;;4842238;29;20038;-74
2021/03/25 03:28:37;;;;;;;68.03;40.65;;;26.10;2201.60;;;;;;4840761;29;20498;-72
2021/03/25 03:31:08;;;;;;;72.45;43.80;;;26.10;2201.60;;;;;;4823797;29;20038;-73
2021/03/25 03:33:56;;;;;;;75.65;41.67;;;26.00;2201.60;;;;;;4839120;29;20060;-73
2021/03/25 03:36:23;;;;;;;74.30;40.38;;;26.10;2201.60;;;;;;4823181;29;20026;-73
2021/03/25 03:38:52;;;;;;;69.32;37.92;;;26.10;2201.60;;;;;;4842666;29;20481;-73
2021/03/25 03:41:25;;;;;;;73.97;40.90;;;26.10;2201.60;;;;;;4842993;29;20067;-73
2021/03/25 03:43:52;;;;;;;71.18;41.97;;;26.10;2201.60;;;;;;4842693;29;20121;-73
2021/03/25 03:46:22;;;;;;;70.82;38.65;;;26.00;2201.60;;;;;;4842552;29;20037;-73
2021/03/25 03:48:55;;;;;;;61.05;36.92;;;26.00;2201.60;;;;;;4834958;29;20047;-74
2021/03/25 03:51:41;;;;;;;65.10;39.80;;;25.90;2201.60;;;;;;4838914;29;20082;-73
2021/03/25 03:54:07;;;;;;;61.75;36.30;;;25.80;2201.60;;;;;;4826168;29;20038;-74
2021/03/25 03:56:38;;;;;;;64.30;36.90;;;25.90;2201.60;;;;;;4844232;29;20104;-74
2021/03/25 03:59:13;;;;;;;61.47;36.83;;;25.80;2201.60;;;;;;4842559;29;20033;-74
2021/03/25 04:01:53;;;;;;;63.08;34.92;;;25.90;2201.60;;;;;;4842802;29;20030;-74
2021/03/25 04:04:35;;;;;;;65.22;37.58;;;25.80;2201.60;;;;;;4842400;29;20116;-74
2021/03/25 04:07:04;;;;;;;59.25;34.60;;;25.90;2201.60;;;;;;4847544;29;20029;-74
2021/03/25 04:09:37;;;;;;;65.30;36.58;;;25.80;2201.60;;;;;;4842793;29;20049;-75
2021/03/25 04:12:12;;;;;;;55.28;34.53;;;25.80;2201.60;;;;;;4841044;29;20052;-74
2021/03/25 04:14:48;;;;;;;66.68;38.17;;;25.70;2201.60;;;;;;4825268;29;20129;-74
2021/03/25 04:17:38;;;;;;;66.75;36.97;;;25.70;2201.60;;;;;;4850553;29;20409;-74
2021/03/25 04:20:13;;;;;;;58.10;37.28;;;25.70;2201.60;;;;;;4811803;29;20066;-74
2021/03/25 04:22:46;;;;;;;68.03;36.05;;;25.90;2201.60;;;;;;4835338;29;20053;-74
2021/03/25 04:25:25;;;;;;;65.18;39.08;;;25.80;2201.60;;;;;;4818043;29;20033;-74
2021/03/25 04:28:09;;;;;;;58.22;35.58;;;25.70;2201.60;;;;;;4825473;29;20022;-75
2021/03/25 04:30:44;;;;;;;71.75;38.47;;;25.70;2201.60;;;;;;4829058;29;20057;-75
2021/03/25 04:33:16;;;;;;;65.32;35.90;;;25.80;2201.60;;;;;;4842241;29;20026;-74
2021/03/25 04:35:44;;;;;;;58.97;37.10;;;25.80;2201.60;;;;;;4841731;29;20665;-74
2021/03/25 04:38:14;;;;;;;60.47;37.50;;;25.80;2201.60;;;;;;4842161;29;20764;-73
2021/03/25 04:40:41;;;;;;;57.58;36.05;;;25.80;2201.60;;;;;;4842031;29;20169;-73
2021/03/25 04:43:07;;;;;;;61.97;35.17;;;26.10;2201.60;;;;;;4838788;29;20034;-73
2021/03/25 04:45:56;;;;;;;57.20;36.30;;;25.90;2201.60;;;;;;4825605;29;20480;-74
2021/03/25 04:48:26;;;;;;;59.15;33.35;;;25.90;2201.60;;;;;;4841481;29;20150;-74
2021/03/25 04:51:05;;;;;;;56.80;34.13;;;26.10;2201.60;;;;;;4824815;29;20045;-74
2021/03/25 04:53:35;;;;;;;62.13;36.65;;;26.10;2201.60;;;;;;4841918;29;20040;-74
2021/03/25 04:56:03;;;;;;;58.40;35.35;;;26.10;2201.60;;;;;;4829885;29;20400;-74
2021/03/25 04:58:35;;;;;;;59.20;34.22;;;26.10;2201.60;;;;;;4825569;29;20034;-75
2021/03/25 05:01:04;;;;;;;57.30;35.25;;;26.10;2201.60;;;;;;4824987;29;20030;-74
2021/03/25 05:03:30;;;;;;;73.57;39.10;;;26.10;2201.60;;;;;;4825132;29;20033;-75
2021/03/25 05:05:57;;;;;;;66.78;38.15;;;26.00;2201.60;;;;;;4841833;29;20026;-74
2021/03/25 05:08:27;;;;;;;62.00;36.17;;;26.00;2201.60;;;;;;4841269;29;20022;-75
2021/03/25 05:11:12;;;;;;;80.82;45.25;;;26.10;2201.60;;;;;;4848914;29;20062;-75
2021/03/25 05:13:43;;;;;;;124.32;60.58;;;26.00;2201.60;;;;;;4819010;29;20061;-74
2021/03/25 05:16:35;;;;;;;169.23;77.45;;;26.10;2201.60;;;;;;4839485;29;20029;-74
2021/03/25 05:19:16;;;;;;;148.05;71.63;;;26.10;2201.60;;;;;;4810338;29;20449;-74
2021/03/25 05:21:48;;;;;;;128.27;68.38;;;25.90;2201.60;;;;;;4841427;29;20360;-74
2021/03/25 05:24:44;;;;;;;144.73;67.78;;;26.10;2201.60;;;;;;4816528;29;20037;-74
2021/03/25 05:27:32;;;;;;;112.32;57.42;;;26.00;2201.60;;;;;;4840501;29;20032;-74
2021/03/25 05:30:00;;;;;;;114.18;60.53;;;26.10;2201.60;;;;;;4840989;29;20046;-74
2021/03/25 05:32:29;;;;;;;119.93;68.90;;;26.10;2201.60;;;;;;4835809;29;20108;-74
2021/03/25 05:34:59;;;;;;;132.48;70.30;;;26.10;2201.60;;;;;;4839008;29;20621;-74
2021/03/25 05:37:25;;;;;;;126.38;66.32;;;26.20;2201.60;;;;;;4820214;29;20050;-74
2021/03/25 05:39:51;;;;;;;114.88;63.25;;;26.20;2201.60;;;;;;4832071;29;20029;-74
2021/03/25 05:42:48;;;;;;;109.10;61.17;;;26.30;2201.60;;;;;;4834924;29;20049;-74
2021/03/25 05:45:29;;;;;;;;;;;26.40;2201.60;;;;;;4837593;29;20089;-73
2021/03/25 05:48:30;;;;;;;101.45;57.22;;;26.40;2201.60;;;;;;4836830;29;19908;-74
2021/03/25 05:51:25;;;;;;;131.63;71.20;;;26.50;2201.60;;;;;;4816098;29;20117;-74
2021/03/25 05:54:16;;;;;;;121.05;68.15;;;26.40;2201.60;;;;;;4832262;29;20377;-74
2021/03/25 05:56:50;;;;;;;137.40;75.68;;;26.50;2201.60;;;;;;4833171;29;20035;-74
2021/03/25 05:59:19;;;;;;;142.93;73.82;;;51.20;2227.20;;;;;;4838119;29;20033;-74
2021/03/25 06:02:09;;;;;;;124.90;69.35;;;51.30;2227.20;;;;;;4834394;29;20022;-74
2021/03/25 06:04:36;;;;;;;94.72;53.53;;;51.30;2227.20;;;;;;4830284;29;20047;-75
2021/03/25 06:07:06;;;;;;;81.88;46.30;;;51.50;2227.20;;;;;;4825971;29;20022;-74
2021/03/25 06:09:46;;;;;;;94.95;52.67;;;51.70;2227.20;;;;;;4835191;29;20084;-74
2021/03/25 06:12:21;;;;;;;94.93;52.70;;;51.60;2227.20;;;;;;4814730;29;20129;-73
2021/03/25 06:15:11;;;;;;;102.68;56.58;;;51.70;2227.20;;;;;;4821417;29;20034;-74
2021/03/25 06:18:03;;;;;;;90.85;50.47;;;51.90;2227.20;;;;;;4839845;29;20018;-74
2021/03/25 06:20:44;;;;;;;88.65;48.60;;;52.00;2227.20;;;;;;4815751;29;20046;-73
2021/03/25 06:23:29;;;;;;;101.93;55.47;;;76.80;2227.20;;;;;;4829349;29;20029;-73
2021/03/25 06:26:33;;;;;;;103.78;56.10;;;77.00;2227.20;;;;;;4814742;29;20030;-73
2021/03/25 06:29:09;;;;;;;92.70;55.35;;;77.10;2227.20;;;;;;4748256;30;20044;-73
2021/03/25 06:31:43;;;;;;;84.55;48.03;;;77.30;2227.20;;;;;;4748006;29;20445;-74
2021/03/25 06:34:43;;;;;;;72.80;43.35;;;77.50;2227.20;;;;;;4736286;30;20454;-73
2021/03/25 06:37:28;;;;;;;71.40;45.05;;;102.40;2227.20;;;;;;4744477;30;20112;-73
2021/03/25 06:40:14;;;;;;;65.72;40.85;;;102.40;2227.20;;;;;;4731977;30;20571;-74
2021/03/25 06:42:42;;;;;;;82.40;47.47;;;102.60;2227.20;;;;;;4744973;30;20068;-74
2021/03/25 06:45:34;;;;;;;70.07;44.28;;;102.70;2227.20;;;;;;4744877;30;20055;-74
2021/03/25 06:48:17;;;;;;;69.93;40.15;;;102.70;2227.20;;;;;;4733248;30;20111;-75
2021/03/25 06:50:53;;;;;;;81.47;47.08;;;102.90;2227.20;;;;;;4746831;30;20425;-75
2021/03/25 06:53:28;;;;;;;67.25;40.92;;;103.10;2227.20;;;;;;4737488;30;20145;-75
2021/03/25 06:56:08;;;;;;;81.88;47.47;;;103.10;2227.20;;;;;;4744213;30;20515;-74
2021/03/25 06:58:47;;;;;;;65.60;42.15;;;103.20;2227.20;;;;;;4747086;30;20033;-74
2021/03/25 07:01:36;;;;;;;81.22;46.05;;;128.10;2252.80;;;;;;4748116;30;20040;-77
2021/03/25 07:04:10;;;;;;;67.68;43.20;;;128.20;2252.80;;;;;;4772795;29;20524;-75
2021/03/25 07:06:37;;;;;;;62.45;39.58;;;128.30;2252.80;;;;;;4837214;29;20129;-75
2021/03/25 07:09:04;;;;;;;65.03;41.25;;;128.50;2227.20;;;;;;4826356;29;20045;-74
2021/03/25 07:11:31;;;;;;;66.75;39.88;;;128.60;2227.20;;;;;;4816562;29;20083;-74
2021/03/25 07:14:05;;;;;;;54.33;36.67;;;128.80;2201.60;;;;;;4836033;29;20492;-75
2021/03/25 07:16:36;;;;;;;63.20;38.30;;;128.80;2176.00;;;;;;4838473;29;20502;-74
2021/03/25 07:19:11;;;;;;;91.53;55.80;;;128.70;2201.60;;;;;;4835474;29;20033;-75
2021/03/25 07:21:44;;;;;;;54.88;34.00;;;128.90;2201.60;;;;;;4823232;29;20580;-73
2021/03/25 07:24:12;;;;;;;56.33;35.47;;;153.80;2124.80;;;;;;4838599;29;20084;-74
2021/03/25 07:26:46;;;;;;;59.00;35.97;;;154.00;2124.80;;;;;;4840490;29;20062;-73
2021/03/25 07:29:11;;;;;;;49.63;34.92;;;154.30;2099.20;;;;;;4842960;29;20018;-74
2021/03/25 07:32:03;;;;;;;52.85;35.47;;;179.30;2022.40;;;;;;4826154;29;20041;-73
2021/03/25 07:34:50;;;;;;;47.45;31.42;;;179.50;2022.40;;;;;;4782244;29;20043;-74
2021/03/25 07:37:32;;;;;;;52.45;29.77;;;179.90;1945.60;;;;;;4788186;29;20031;-73
2021/03/25 07:40:04;;;;;;;44.22;28.67;;;180.00;1894.40;;;;;;4786531;30;20039;-74
2021/03/25 07:42:37;;;;;;;51.92;30.33;;;180.00;1894.40;;;;;;4785565;30;20039;-74
2021/03/25 07:45:18;;;;;;;40.47;24.70;;;204.80;1868.80;;;;;;4785791;29;20043;-74
2021/03/25 07:47:44;;;;;;;40.88;27.77;;;205.30;1766.40;;;;;;4784057;30;20458;-74
2021/03/25 07:50:31;;;;;;;42.08;30.58;;;205.20;1817.60;;;;;;4787400;30;20091;-74
2021/03/25 07:52:57;;;;;;;;;;;205.60;1766.40;;;;;;4786643;30;20032;-75
2021/03/25 07:55:28;;;;;;;46.30;29.80;;;205.70;1740.80;;;;;;4769802;30;19969;-74
2021/03/25 07:57:56;;;;;;;44.88;29.58;;;230.50;1740.80;;;;;;4770333;30;20362;-75
2021/03/25 08:00:34;;;;;;;46.67;29.95;;;230.80;1715.20;;;;;;4779684;30;20034;-74
2021/03/25 08:03:16;;;;;;;46.58;29.27;;;230.90;1664.00;;;;;;4784055;29;20137;-74
2021/03/25 08:05:43;;;;;;;41.47;27.63;;;230.90;1664.00;;;;;;4765182;30;20126;-74
2021/03/25 08:08:21;;;;;;;38.35;25.15;;;230.90;1664.00;;;;;;4783884;29;20044;-74
2021/03/25 08:10:49;;;;;;;35.38;26.00;;;231.10;1587.20;;;;;;4796339;29;20034;-75
2021/03/25 08:13:29;;;;;;;32.80;24.30;;;256.00;1612.80;;;;;;4837780;29;20077;-75
2021/03/25 08:16:10;;;;;;;36.72;24.77;;;230.90;1638.40;;;;;;4821483;29;20018;-75
2021/03/25 08:18:52;;;;;;;34.58;22.40;;;231.20;1638.40;;;;;;4836511;29;20022;-75
2021/03/25 08:21:45;;;;;;;34.08;19.55;;;256.10;1561.60;;;;;;4836017;29;20025;-76
2021/03/25 08:24:45;;;;;;;32.17;19.45;;;256.50;1484.80;;;;;;4818905;29;20451;-75
2021/03/25 08:27:14;;;;;;;30.40;19.02;;;281.90;1433.60;;;;;;4838039;29;20026;-76
2021/03/25 08:29:52;;;;;;;25.52;17.42;;;282.30;1382.40;;;;;;4834654;29;20503;-76
2021/03/25 08:32:29;;;;;;;24.23;15.43;;;307.30;1382.40;;;;;;4836192;29;20018;-76
2021/03/25 08:35:17;;;;;;;22.23;16.05;;;307.40;1331.20;;;;;;4816339;29;20029;-76
2021/03/25 08:38:02;;;;;;;27.55;17.55;;;307.40;1305.60;;;;;;4821534;29;20049;-77
2021/03/25 08:40:42;;;;;;;24.73;17.45;;;308.10;1254.40;;;;;;4823203;29;20046;-76
2021/03/25 08:43:20;;;;;;;22.45;16.38;;;332.90;1280.00;;;;;;4836662;29;20037;-74
2021/03/25 08:45:55;;;;;;;26.17;16.50;;;333.20;1228.80;;;;;;4834824;29;20038;-74
2021/03/25 08:48:38;;;;;;;27.83;17.80;;;333.20;1203.20;;;;;;4822692;29;20455;-74
2021/03/25 08:51:10;;;;;;;25.33;17.88;;;333.30;1228.80;;;;;;4838655;29;20082;-75
2021/03/25 08:53:49;;;;;;;23.33;17.58;;;333.60;1228.80;;;;;;4837291;29;20037;-74
2021/03/25 08:56:28;;;;;;;27.33;18.58;;;333.60;1228.80;;;;;;4833754;29;20037;-74
2021/03/25 08:58:59;;;;;;;20.77;16.02;;;358.60;1177.60;;;;;;4835751;29;20114;-76
2021/03/25 09:01:48;;;;;;;23.80;15.63;;;358.70;1126.40;;;;;;4818768;29;20095;-74
2021/03/25 09:04:16;;;;;;;20.45;13.90;;;359.00;972.80;;;;;;4812637;29;20042;-75
2021/03/25 09:06:46;;;;;;;21.40;13.02;;;358.60;972.80;;;;;;4817506;29;20032;-76
2021/03/25 09:09:33;;;;;;;20.42;12.57;;;358.60;921.60;;;;;;4832673;29;20025;-76
2021/03/25 09:12:01;;;;;;;22.38;14.48;;;358.90;947.20;;;;;;4832809;29;20050;-75
2021/03/25 09:14:29;;;;;;;16.00;10.90;;;359.10;921.60;;;;;;4816893;29;20381;-74
2021/03/25 09:17:07;;;;;;;19.45;13.65;;;359.10;844.80;;;;;;4818280;29;20042;-75
2021/03/25 09:19:41;;;;;;;18.77;12.10;;;359.10;896.00;;;;;;4838324;29;20032;-75
2021/03/25 09:22:08;;;;;;;23.02;13.98;;;359.10;896.00;;;;;;4817172;29;20045;-75
2021/03/25 09:24:33;;;;;;;13.63;10.80;;;384.40;870.40;;;;;;4815372;29;20504;-77
2021/03/25 09:27:01;;;;;;;16.73;12.10;;;384.10;793.60;;;;;;4823964;29;20151;-75
2021/03/25 09:29:50;;;;;;;17.85;12.70;;;384.60;819.20;;;;;;4835939;29;20097;-75
2021/03/25 09:32:32;;;;;;;18.02;11.45;;;409.70;844.80;;;;;;4819471;29;20038;-74
2021/03/25 09:34:59;;;;;;;17.13;11.40;;;409.90;768.00;;;;;;4818575;29;20065;-74
2021/03/25 09:37:30;;;;;;;17.42;11.45;;;384.90;742.40;;;;;;4817794;29;20030;-72
2021/03/25 09:40:42;;;;;;;23.13;14.43;;;409.80;742.40;;;;;;4833443;29;20155;-74
2021/03/25 10:27:17;;;;;;;9.93;7.32;;;435.50;614.40;;;;;;4833773;29;20439;-69
2021/03/25 10:29:43;;;;;;;11.82;8.30;;;461.00;588.80;;;;;;4848566;29;20034;-70
2021/03/25 10:32:19;;;;;;;10.10;7.60;;;486.60;588.80;;;;;;4841538;29;20025;-70
2021/03/25 10:34:48;;;;;;;11.00;6.47;;;486.40;588.80;;;;;;4844103;29;20022;-70
2021/03/25 10:37:35;;;;;;;12.68;6.75;;;461.60;614.40;;;;;;4839444;29;20033;-69
2021/03/25 10:40:18;;;;;;;13.88;7.03;;;461.10;588.80;;;;;;4824467;29;20122;-70
2021/03/25 10:42:55;;;;;;;10.07;7.43;;;460.90;614.40;;;;;;4844632;29;20042;-69
2021/03/25 10:45:20;;;;;;;10.38;8.18;;;461.50;563.20;;;;;;4846091;29;20026;-69
2021/03/25 10:48:02;;;;;;;10.35;7.20;;;486.70;563.20;;;;;;4843378;29;20042;-69
2021/03/25 10:50:35;;;;;;;12.20;7.72;;;487.10;537.60;;;;;;4854280;29;20041;-70
2021/03/25 10:53:04;;;;;;;11.63;7.65;;;487.10;563.20;;;;;;4842275;29;20026;-72
2021/03/25 10:55:38;;;;;;;9.75;6.53;;;486.70;563.20;;;;;;4845633;29;20117;-70
2021/03/25 10:58:06;;;;;;;11.77;7.18;;;461.70;537.60;;;;;;4843145;29;20460;-72
2021/03/25 11:00:34;;;;;;;8.30;6.07;;;486.70;537.60;;;;;;4825885;29;20456;-70
2021/03/25 11:03:02;;;;;;;11.82;8.10;;;487.00;512.00;;;;;;4840803;29;20026;-72
2021/03/25 11:05:30;;;;;;;11.05;6.82;;;486.90;563.20;;;;;;4837020;29;20030;-69
2021/03/25 11:08:02;;;;;;;19.48;7.18;;;486.40;563.20;;;;;;4841720;29;20078;-70
2021/03/25 11:10:34;;;;;;;15.80;9.98;;;486.90;537.60;;;;;;4840315;29;20445;-69
2021/03/25 11:13:04;;;;;;;18.40;8.52;;;486.80;563.20;;;;;;4841338;29;20022;-71
2021/03/25 11:15:44;;;;;;;10.82;7.07;;;486.60;563.20;;;;;;4837641;29;20487;-71
2021/03/25 11:18:27;;;;;;;11.95;7.03;;;487.20;537.60;;;;;;4836345;29;20038;-71
2021/03/25 11:20:53;;;;;;;15.55;8.95;;;512.30;537.60;;;;;;4840026;29;20033;-70
2021/03/25 11:23:23;;;;;;;12.25;7.60;;;487.30;537.60;;;;;;4843532;29;20038;-69
2021/03/25 11:25:58;;;;;;;8.32;6.28;;;512.10;512.00;;;;;;4841691;29;20494;-70
2021/03/25 11:28:26;;;;;;;10.27;7.10;;;487.10;537.60;;;;;;4841165;29;20026;-70
2021/03/25 11:31:13;;;;;;;14.85;8.10;;;512.20;512.00;;;;;;4842325;29;20048;-70
2021/03/25 11:33:39;;;;;;;11.40;7.07;;;512.00;537.60;;;;;;4826520;29;20125;-70
2021/03/25 11:36:06;;;;;;;10.32;7.10;;;487.30;537.60;;;;;;4837816;29;20108;-70
2021/03/25 11:38:34;;;;;;;10.07;6.40;;;512.30;512.00;;;;;;4839873;29;20022;-70
2021/03/25 11:41:06;;;;;;;9.52;7.72;;;512.20;537.60;;;;;;4843711;29;20113;-70
2021/03/25 11:43:43;;;;;;;10.70;7.40;;;537.70;537.60;;;;;;4838630;29;20026;-70
2021/03/25 11:46:09;;;;;;;8.10;5.28;;;538.50;486.40;;;;;;4831106;29;20119;-70
2021/03/25 11:48:37;;;;;;;10.60;6.35;;;537.80;486.40;;;;;;4835924;29;20027;-70
2021/03/25 11:51:15;;;;;;;8.20;5.68;;;538.40;486.40;;;;;;4836041;29;20030;-69
2021/03/25 11:53:44;;;;;;;8.15;5.22;;;512.30;486.40;;;;;;4837761;29;20038;-70
2021/03/25 11:56:49;;;;;;;8.25;5.15;;;487.10;512.00;;;;;;4839443;29;20037;-69
2021/03/25 11:59:18;;;;;;;8.27;5.80;;;487.20;486.40;;;;;;4750252;30;20027;-70
2021/03/25 12:01:44;;;;;;;9.23;6.70;;;512.50;460.80;;;;;;4757309;30;20412;-70
2021/03/25 12:04:13;;;;;;;7.72;5.53;;;537.90;486.40;;;;;;4759731;30;20040;-72
2021/03/25 12:06:56;;;;;;;9.25;5.80;;;538.10;460.80;;;;;;4758597;30;20113;-70
2021/03/25 12:09:22;;;;;;;10.65;6.38;;;538.30;486.40;;;;;;4756662;30;20047;-71
2021/03/25 12:11:49;;;;;;;8.80;6.03;;;538.20;486.40;;;;;;4756163;30;20028;-69
2021/03/25 12:14:17;;;;;;;7.55;5.72;;;538.00;486.40;;;;;;4765174;30;20493;-72
2021/03/25 12:16:44;;;;;;;8.63;4.93;;;537.70;486.40;;;;;;4759783;30;20040;-70
2021/03/25 12:19:10;;;;;;;10.18;5.10;;;512.90;435.20;;;;;;4762666;30;20036;-69
2021/03/25 12:21:38;;;;;;;10.27;5.55;;;538.20;486.40;;;;;;4761823;30;20051;-70
2021/03/25 12:24:05;;;;;;;10.85;6.85;;;563.30;486.40;;;;;;4750491;30;20032;-69
2021/03/25 12:26:31;;;;;;;7.82;5.60;;;512.90;486.40;;;;;;4756395;30;20063;-70
2021/03/25 12:29:03;;;;;;;11.63;6.35;;;538.00;486.40;;;;;;4759246;30;20020;-71
2021/03/25 12:31:33;;;;;;;14.73;6.93;;;538.10;486.40;;;;;;4759265;30;20111;-70
2021/03/25 12:33:59;;;;;;;8.73;4.60;;;512.50;486.40;;;;;;4828326;29;20149;-70
2021/03/25 12:36:25;;;;;;;11.07;6.43;;;512.90;435.20;;;;;;4838719;29;20057;-70
2021/03/25 12:38:52;;;;;;;9.05;6.30;;;512.60;460.80;;;;;;4821552;29;20518;-71
2021/03/25 12:41:28;;;;;;;8.70;4.95;;;538.00;460.80;;;;;;4840443;29;20053;-70
2021/03/25 12:43:54;;;;;;;6.53;4.85;;;512.90;460.80;;;;;;4822572;29;20037;-70
2021/03/25 12:46:20;;;;;;;10.15;5.70;;;537.60;512.00;;;;;;4836093;29;20510;-70
2021/03/25 12:48:45;;;;;;;10.77;6.10;;;537.60;512.00;;;;;;4840496;29;20036;-70
2021/03/25 12:51:15;;;;;;;10.52;5.82;;;538.10;486.40;;;;;;4840770;29;20568;-70
2021/03/25 12:53:42;;;;;;;9.02;5.93;;;512.80;460.80;;;;;;4837495;29;20022;-70
2021/03/25 12:56:21;;;;;;;11.20;6.70;;;487.30;486.40;;;;;;4839813;29;20104;-70
2021/03/25 12:58:46;;;;;;;10.38;4.95;;;487.30;512.00;;;;;;4838358;29;20048;-70
2021/03/25 13:01:16;;;;;;;11.30;6.07;;;512.00;486.40;;;;;;4817268;29;20479;-71
2021/03/25 13:03:43;;;;;;;7.78;4.78;;;512.50;460.80;;;;;;4835849;29;20034;-70
2021/03/25 13:06:10;;;;;;;10.43;5.90;;;512.70;460.80;;;;;;4840292;29;20030;-70
2021/03/25 13:08:35;;;;;;;15.20;6.95;;;512.90;435.20;;;;;;4835077;29;20045;-70
2021/03/25 13:11:02;;;;;;;9.35;5.45;;;537.80;460.80;;;;;;4839552;29;20411;-70
2021/03/25 13:13:28;;;;;;;10.95;6.40;;;512.90;460.80;;;;;;4837409;29;20099;-69
2021/03/25 13:15:54;;;;;;;16.67;6.68;;;537.60;486.40;;;;;;4823472;29;20571;-69
2021/03/25 13:18:21;;;;;;;14.30;6.10;;;537.80;486.40;;;;;;4835378;29;20506;-69
2021/03/25 13:20:47;;;;;;;9.82;6.53;;;537.80;486.40;;;;;;4835334;29;20030;-69
2021/03/25 13:23:13;;;;;;;7.90;5.70;;;537.60;486.40;;;;;;4835319;29;20533;-71
2021/03/25 13:25:42;;;;;;;9.00;6.38;;;537.80;486.40;;;;;;4834213;29;20042;-70
2021/03/25 13:28:10;;;;;;;10.02;5.85;;;512.90;460.80;;;;;;4821161;29;20562;-71